Time;durP1;ratioP1;P1;durP2;ratioP2;P2;SDS_P1;SDS_P2;PMS_P1;PMS_P2;Temp;Humidity;BMP_temperature;BMP_pressure;BME280_temperature;BME280_humidity;BME280_pressure;Samples;Min_cycle;Max_cycle;Signal;HPM_P1;HPM_P2
2022/11/08 00:01:48;;;;;;;8.70;2.38;;;15.00;77.40;;;;;;5021293;28;20032;-61
2022/11/08 00:04:16;;;;;;;7.25;1.70;;;14.90;77.40;;;;;;5027231;28;20184;-61
2022/11/08 00:14:56;;;;;;;11.77;2.08;;;14.90;77.60;;;;;;5029332;28;20033;-61
2022/11/08 00:17:24;;;;;;;8.95;2.35;;;14.80;77.60;;;;;;5019567;28;20094;-61
2022/11/08 00:19:49;;;;;;;9.65;2.50;;;14.80;77.70;;;;;;5025980;28;20034;-61
2022/11/08 00:22:16;;;;;;;9.13;2.58;;;14.80;77.70;;;;;;5017420;28;20046;-61
2022/11/08 00:24:42;;;;;;;6.80;2.15;;;14.80;77.80;;;;;;5031460;28;20431;-61
2022/11/08 00:27:19;;;;;;;9.52;2.42;;;14.80;77.90;;;;;;5019316;28;20030;-61
2022/11/08 00:29:45;;;;;;;9.05;2.00;;;14.70;77.80;;;;;;5030162;28;20029;-61
2022/11/08 00:32:13;;;;;;;7.78;2.35;;;14.70;77.90;;;;;;5022916;28;20026;-61
2022/11/08 00:34:39;;;;;;;8.32;2.30;;;14.70;77.90;;;;;;5028546;28;20108;-61
2022/11/08 00:37:05;;;;;;;8.18;2.28;;;14.70;77.90;;;;;;5023052;28;20125;-61
2022/11/08 00:39:31;;;;;;;10.73;2.33;;;14.70;78.00;;;;;;5027772;28;20018;-61
2022/11/08 00:41:56;;;;;;;8.25;2.53;;;14.70;78.00;;;;;;5017754;28;20405;-61
2022/11/08 00:44:22;;;;;;;11.30;2.60;;;14.70;78.00;;;;;;5026539;28;20025;-61
2022/11/08 00:46:49;;;;;;;7.05;2.13;;;14.70;78.00;;;;;;5022248;28;20026;-61
2022/11/08 00:49:15;;;;;;;8.45;3.08;;;14.60;78.00;;;;;;5018835;28;20033;-61
2022/11/08 00:51:41;;;;;;;10.15;2.78;;;14.60;78.10;;;;;;5020102;28;20029;-61
2022/11/08 00:54:08;;;;;;;6.80;2.08;;;14.60;78.20;;;;;;5027722;28;20427;-61
2022/11/08 00:56:34;;;;;;;5.28;1.77;;;14.60;78.30;;;;;;5030102;28;20018;-61
2022/11/08 00:59:00;;;;;;;7.35;2.38;;;14.60;78.30;;;;;;5035422;28;20033;-61
2022/11/08 01:01:26;;;;;;;8.73;2.40;;;14.50;78.30;;;;;;5024163;28;20025;-61
2022/11/08 01:03:52;;;;;;;7.43;2.22;;;14.50;78.40;;;;;;5018589;28;20092;-62
2022/11/08 01:06:20;;;;;;;7.65;2.00;;;14.50;78.40;;;;;;5016762;28;20098;-61
2022/11/08 01:08:48;;;;;;;13.07;3.83;;;14.50;78.40;;;;;;5016934;28;20041;-61
2022/11/08 01:11:16;;;;;;;6.55;1.90;;;14.50;78.40;;;;;;5017157;28;20040;-61
2022/11/08 01:13:42;;;;;;;7.82;2.20;;;14.50;78.40;;;;;;5033169;28;20400;-61
2022/11/08 01:16:14;;;;;;;7.85;2.35;;;14.50;78.40;;;;;;5014576;28;20096;-61
2022/11/08 01:18:39;;;;;;;8.38;2.40;;;14.50;78.40;;;;;;5016690;28;20117;-61
2022/11/08 01:21:05;;;;;;;8.38;2.30;;;14.50;78.40;;;;;;5015612;28;20088;-61
2022/11/08 01:23:31;;;;;;;7.18;2.05;;;14.50;78.40;;;;;;5016644;28;20026;-61
2022/11/08 01:26:04;;;;;;;8.60;2.13;;;14.50;78.50;;;;;;5014552;28;20030;-61
2022/11/08 01:28:30;;;;;;;7.45;2.15;;;14.50;78.50;;;;;;5016612;28;20033;-61
2022/11/08 01:30:55;;;;;;;9.60;2.47;;;14.50;78.50;;;;;;5016466;28;20042;-62
2022/11/08 01:33:21;;;;;;;8.75;2.00;;;14.40;78.50;;;;;;5014990;28;20030;-61
2022/11/08 01:35:46;;;;;;;7.03;2.20;;;14.40;78.50;;;;;;5016737;28;20200;-61
2022/11/08 01:38:12;;;;;;;8.02;2.53;;;14.40;78.50;;;;;;5013735;28;20058;-62
2022/11/08 01:40:45;;;;;;;7.18;2.30;;;14.40;78.60;;;;;;5013798;28;20025;-61
2022/11/08 01:43:29;;;;;;;9.15;1.98;;;14.40;78.60;;;;;;5014925;28;20026;-61
2022/11/08 01:46:18;;;;;;;10.15;2.28;;;14.40;78.60;;;;;;5016352;28;20025;-61
2022/11/08 01:48:56;;;;;;;8.25;2.72;;;14.40;78.60;;;;;;5012318;28;20041;-61
2022/11/08 01:51:48;;;;;;;9.85;2.20;;;14.40;78.70;;;;;;5015977;28;20025;-61
2022/11/08 01:54:19;;;;;;;5.82;2.05;;;14.30;78.70;;;;;;5003666;28;20036;-61
2022/11/08 01:56:45;;;;;;;9.57;2.15;;;14.30;78.80;;;;;;5012986;28;20467;-61
2022/11/08 01:59:14;;;;;;;6.97;2.00;;;14.40;78.80;;;;;;5016159;28;20053;-61
2022/11/08 02:01:40;;;;;;;9.02;2.50;;;14.30;78.80;;;;;;5015146;28;20366;-61
2022/11/08 02:04:06;;;;;;;7.13;2.33;;;14.30;78.80;;;;;;5014478;28;20022;-61
2022/11/08 02:06:36;;;;;;;7.88;2.47;;;14.30;78.80;;;;;;5015172;28;20478;-61
2022/11/08 02:09:07;;;;;;;6.45;2.33;;;14.30;78.80;;;;;;5016235;28;20057;-61
2022/11/08 02:11:33;;;;;;;7.07;1.98;;;14.30;78.80;;;;;;5015854;28;20022;-61
2022/11/08 02:13:59;;;;;;;10.13;2.53;;;14.30;78.90;;;;;;5021343;28;20037;-61
2022/11/08 02:16:25;;;;;;;6.68;2.00;;;14.30;78.90;;;;;;5022233;28;20328;-61
2022/11/08 02:18:51;;;;;;;7.05;2.10;;;14.30;78.90;;;;;;5017442;28;20090;-61
2022/11/08 02:21:27;;;;;;;8.00;2.42;;;14.30;78.90;;;;;;5023055;28;20046;-61
2022/11/08 02:23:55;;;;;;;5.32;2.20;;;14.20;78.90;;;;;;5018294;28;20443;-61
2022/11/08 02:26:28;;;;;;;7.07;2.08;;;14.20;78.90;;;;;;5015547;28;20033;-61
2022/11/08 02:28:54;;;;;;;7.50;2.30;;;14.20;78.90;;;;;;5014791;28;20034;-61
2022/11/08 02:31:20;;;;;;;8.25;2.28;;;14.10;78.90;;;;;;5015231;28;20030;-61
2022/11/08 02:33:47;;;;;;;6.43;2.15;;;14.10;79.00;;;;;;5024958;28;20374;-61
2022/11/08 02:36:20;;;;;;;7.53;2.55;;;14.10;79.00;;;;;;5028198;28;20041;-61
2022/11/08 02:38:53;;;;;;;4.57;1.85;;;14.10;79.00;;;;;;5025861;28;20116;-61
2022/11/08 02:41:19;;;;;;;8.07;2.13;;;14.10;79.10;;;;;;5032632;28;20128;-61
2022/11/08 02:43:44;;;;;;;8.10;2.35;;;14.00;79.00;;;;;;5028987;28;20055;-61
2022/11/08 02:46:10;;;;;;;8.65;2.63;;;14.00;79.10;;;;;;5028207;28;20025;-61
2022/11/08 02:48:35;;;;;;;7.95;2.50;;;14.00;79.20;;;;;;5027966;28;20117;-61
2022/11/08 02:51:01;;;;;;;7.60;2.33;;;14.00;79.20;;;;;;5020832;28;20033;-61
2022/11/08 02:53:27;;;;;;;7.57;2.17;;;14.00;79.30;;;;;;5015725;28;20054;-61
2022/11/08 02:55:52;;;;;;;7.65;2.58;;;13.90;79.30;;;;;;5015949;28;20038;-61
2022/11/08 02:58:18;;;;;;;7.53;2.53;;;13.90;79.30;;;;;;5031666;28;20033;-61
2022/11/08 03:00:43;;;;;;;7.05;2.33;;;13.90;79.30;;;;;;5026052;28;20042;-61
2022/11/08 03:03:09;;;;;;;6.88;2.13;;;13.90;79.40;;;;;;5027198;28;20417;-61
2022/11/08 03:05:35;;;;;;;5.82;2.10;;;13.90;79.40;;;;;;5034784;28;20021;-61
2022/11/08 03:08:01;;;;;;;7.40;2.22;;;13.90;79.40;;;;;;5031649;28;20519;-61
2022/11/08 03:10:27;;;;;;;12.18;2.90;;;13.90;79.50;;;;;;5012048;28;20029;-60
2022/11/08 03:12:59;;;;;;;9.13;2.40;;;13.90;79.40;;;;;;5017443;28;20032;-61
2022/11/08 03:15:26;;;;;;;6.22;2.28;;;13.90;79.50;;;;;;5017224;28;20030;-61
2022/11/08 03:17:52;;;;;;;8.18;2.45;;;13.90;79.50;;;;;;5020273;28;20041;-61
2022/11/08 03:20:18;;;;;;;6.38;2.00;;;13.90;79.50;;;;;;5028999;28;20492;-61
2022/11/08 03:22:44;;;;;;;7.13;2.10;;;13.90;79.50;;;;;;5020765;28;20041;-61
2022/11/08 03:25:10;;;;;;;5.63;2.33;;;13.90;79.50;;;;;;5013370;28;20113;-61
2022/11/08 03:27:36;;;;;;;6.10;2.28;;;13.90;79.50;;;;;;5014707;28;20117;-61
2022/11/08 03:30:02;;;;;;;6.97;2.45;;;13.80;79.40;;;;;;5041690;28;20449;-61
2022/11/08 03:32:27;;;;;;;7.63;2.00;;;13.80;80.00;;;;;;5026064;28;20044;-61
2022/11/08 03:34:53;;;;;;;6.60;2.20;;;13.90;79.40;;;;;;5021003;28;20447;-61
2022/11/08 03:37:19;;;;;;;8.35;2.30;;;13.80;79.30;;;;;;5017320;28;20021;-61
2022/11/08 03:39:44;;;;;;;4.65;1.80;;;13.80;79.30;;;;;;5023315;28;20055;-61
2022/11/08 03:42:10;;;;;;;6.63;2.63;;;13.80;79.30;;;;;;5030597;28;20025;-63
2022/11/08 03:44:36;;;;;;;5.75;2.25;;;13.80;79.30;;;;;;5029063;28;20029;-61
2022/11/08 03:47:01;;;;;;;7.32;1.98;;;13.90;79.30;;;;;;5026755;28;20100;-61
2022/11/08 03:49:27;;;;;;;7.07;2.15;;;13.80;79.20;;;;;;5017820;28;20029;-61
2022/11/08 03:51:53;;;;;;;6.53;2.20;;;13.80;79.20;;;;;;5026108;28;20028;-61
2022/11/08 03:54:19;;;;;;;5.75;1.80;;;13.80;79.20;;;;;;5021310;28;20037;-61
2022/11/08 03:56:44;;;;;;;5.10;1.65;;;13.80;79.20;;;;;;5034141;28;20076;-61
2022/11/08 03:59:11;;;;;;;5.43;2.20;;;13.80;79.20;;;;;;5021829;28;20029;-61
2022/11/08 04:01:38;;;;;;;4.82;2.08;;;13.80;79.10;;;;;;5019726;28;20021;-61
2022/11/08 04:04:06;;;;;;;6.18;1.75;;;13.80;79.20;;;;;;5025504;28;20446;-61
2022/11/08 04:06:32;;;;;;;6.97;1.90;;;13.80;79.10;;;;;;5026278;28;20032;-61
2022/11/08 04:08:58;;;;;;;8.18;2.20;;;13.80;79.00;;;;;;5023149;28;20034;-61
2022/11/08 04:16:53;;;;;;;7.68;2.30;;;13.80;79.00;;;;;;5027822;28;20451;-61
2022/11/08 04:22:06;;;;;;;5.32;1.83;;;13.70;78.90;;;;;;5025446;28;20038;-61
2022/11/08 04:24:32;;;;;;;6.07;2.13;;;13.70;78.80;;;;;;5018134;28;20021;-61
2022/11/08 04:26:58;;;;;;;4.90;2.20;;;13.70;78.80;;;;;;5017134;28;20029;-61
2022/11/08 04:29:23;;;;;;;7.03;2.47;;;13.70;78.80;;;;;;5016386;28;20036;-61
2022/11/08 04:31:49;;;;;;;4.47;1.50;;;13.70;78.80;;;;;;5017612;28;20133;-61
2022/11/08 04:34:15;;;;;;;6.10;1.98;;;13.60;78.70;;;;;;5016390;28;20022;-61
2022/11/08 04:36:40;;;;;;;5.30;1.67;;;13.70;78.80;;;;;;5016856;28;20049;-61
2022/11/08 04:39:06;;;;;;;5.60;1.75;;;13.60;78.70;;;;;;4999565;28;20072;-61
2022/11/08 04:41:32;;;;;;;8.32;2.33;;;13.60;78.60;;;;;;5013050;28;20030;-61
2022/11/08 04:43:58;;;;;;;3.67;1.67;;;13.60;78.50;;;;;;5015369;28;20443;-61
2022/11/08 04:46:26;;;;;;;5.18;1.63;;;13.60;78.50;;;;;;5017254;28;20033;-61
2022/11/08 04:48:54;;;;;;;5.65;1.70;;;13.60;78.40;;;;;;5029530;28;20025;-61
2022/11/08 04:51:29;;;;;;;6.30;2.08;;;13.60;78.30;;;;;;5021048;28;20029;-60
2022/11/08 04:53:56;;;;;;;7.10;1.67;;;13.60;78.20;;;;;;5029510;28;20589;-61
2022/11/08 04:56:23;;;;;;;5.45;1.85;;;13.60;78.10;;;;;;5020643;28;20021;-61
2022/11/08 04:58:51;;;;;;;6.03;1.90;;;13.60;78.10;;;;;;5015136;28;20494;-61
2022/11/08 05:01:19;;;;;;;5.85;1.80;;;13.60;78.00;;;;;;5016294;28;20030;-61
2022/11/08 05:03:46;;;;;;;6.07;2.42;;;13.60;78.00;;;;;;5030994;28;20018;-61
2022/11/08 05:06:14;;;;;;;6.13;1.90;;;13.60;77.90;;;;;;5018055;28;20025;-61
2022/11/08 05:08:40;;;;;;;6.60;1.83;;;13.60;77.80;;;;;;5018984;28;20029;-61
2022/11/08 05:11:11;;;;;;;6.45;2.05;;;13.60;77.70;;;;;;5016214;28;20046;-61
2022/11/08 05:13:37;;;;;;;4.70;2.00;;;13.60;77.70;;;;;;5010565;28;20034;-61
2022/11/08 05:16:11;;;;;;;4.18;1.60;;;13.60;77.60;;;;;;5001497;28;20026;-61
2022/11/08 05:18:37;;;;;;;5.45;1.67;;;13.60;78.30;;;;;;5011777;28;20417;-61
2022/11/08 05:23:48;;;;;;;3.92;1.80;;;13.50;77.50;;;;;;5015597;28;20038;-61
2022/11/08 05:26:15;;;;;;;6.05;2.03;;;13.50;77.40;;;;;;5010107;28;20041;-61
2022/11/08 05:28:40;;;;;;;8.05;2.13;;;13.50;77.30;;;;;;5000937;28;20098;-61
2022/11/08 05:31:07;;;;;;;5.32;1.85;;;13.50;77.30;;;;;;5003199;28;20035;-61
2022/11/08 05:33:33;;;;;;;6.47;2.08;;;13.50;77.20;;;;;;5003594;28;20041;-61
2022/11/08 05:36:07;;;;;;;6.90;1.90;;;13.50;77.20;;;;;;4999854;28;20034;-62
2022/11/08 05:38:33;;;;;;;7.20;1.85;;;13.50;77.20;;;;;;4999066;28;20033;-61
2022/11/08 05:41:24;;;;;;;5.93;2.15;;;13.50;77.20;;;;;;5006469;28;20021;-61
2022/11/08 05:43:52;;;;;;;5.35;1.80;;;13.50;77.10;;;;;;5009475;28;20501;-61
2022/11/08 05:46:20;;;;;;;6.78;2.00;;;13.50;77.10;;;;;;5013501;28;20050;-62
2022/11/08 05:48:46;;;;;;;7.90;2.10;;;13.50;77.10;;;;;;5016098;28;20038;-61
2022/11/08 05:51:13;;;;;;;7.72;1.95;;;13.50;77.10;;;;;;5015328;28;20026;-61
2022/11/08 05:53:39;;;;;;;5.82;1.83;;;13.50;77.10;;;;;;5013596;28;20037;-61
2022/11/08 05:56:06;;;;;;;6.57;1.92;;;13.50;77.00;;;;;;5020424;28;20026;-61
2022/11/08 05:58:33;;;;;;;4.85;1.55;;;13.50;77.00;;;;;;5030848;28;20117;-61
2022/11/08 06:01:00;;;;;;;6.88;2.15;;;13.50;76.90;;;;;;5016268;28;20033;-62
2022/11/08 06:03:25;;;;;;;8.00;2.28;;;13.40;76.90;;;;;;5017060;28;20060;-62
2022/11/08 06:05:51;;;;;;;4.85;1.92;;;13.50;76.90;;;;;;5014442;28;20065;-61
2022/11/08 06:08:17;;;;;;;7.03;1.98;;;13.40;76.90;;;;;;5016354;28;20113;-62
2022/11/08 06:10:42;;;;;;;6.30;2.10;;;13.40;76.80;;;;;;5021620;28;20029;-62
2022/11/08 06:13:08;;;;;;;7.78;2.42;;;13.40;76.80;;;;;;5015701;28;20030;-62
2022/11/08 06:15:34;;;;;;;6.43;1.80;;;13.40;76.80;;;;;;5015610;28;20038;-62
2022/11/08 06:18:03;;;;;;;4.93;2.00;;;13.40;76.80;;;;;;5015959;28;20379;-62
2022/11/08 06:20:29;;;;;;;5.97;2.10;;;13.40;76.70;;;;;;5017444;28;20048;-61
2022/11/08 06:22:55;;;;;;;7.03;2.13;;;13.40;76.70;;;;;;5015490;28;20465;-61
2022/11/08 06:25:21;;;;;;;6.90;2.45;;;13.40;76.70;;;;;;5014255;28;20030;-61
2022/11/08 06:27:47;;;;;;;8.60;2.20;;;13.40;76.60;;;;;;5015810;28;20435;-61
2022/11/08 06:30:13;;;;;;;6.78;2.22;;;13.40;77.30;;;;;;5017122;28;20049;-62
2022/11/08 06:32:39;;;;;;;4.97;1.77;;;13.40;76.50;;;;;;5010614;28;20468;-61
2022/11/08 06:35:05;;;;;;;5.47;2.40;;;13.40;76.50;;;;;;5015490;28;20068;-62
2022/11/08 06:37:31;;;;;;;7.45;2.00;;;13.40;76.50;;;;;;5017496;28;20073;-62
2022/11/08 06:39:58;;;;;;;6.32;2.00;;;13.40;76.50;;;;;;5015893;28;20053;-62
2022/11/08 06:42:24;;;;;;;6.28;2.17;;;13.40;76.50;;;;;;5012692;28;20047;-62
2022/11/08 06:44:50;;;;;;;7.28;2.67;;;13.40;76.40;;;;;;5015335;28;20018;-62
2022/11/08 06:47:15;;;;;;;5.93;2.40;;;13.40;76.40;;;;;;5020380;28;20409;-62
2022/11/08 06:49:41;;;;;;;5.85;2.13;;;13.40;76.40;;;;;;5019829;28;20139;-62
2022/11/08 06:52:07;;;;;;;8.30;2.40;;;13.50;76.40;;;;;;5012548;28;20040;-62
2022/11/08 06:54:32;;;;;;;6.28;2.38;;;13.40;76.30;;;;;;5015420;28;20367;-62
2022/11/08 06:57:01;;;;;;;5.28;2.08;;;13.50;76.30;;;;;;5018390;28;20049;-62
2022/11/08 06:59:27;;;;;;;6.40;2.50;;;13.50;76.30;;;;;;5013847;28;20018;-61
2022/11/08 07:01:53;;;;;;;4.43;1.85;;;13.50;76.30;;;;;;5023207;28;20033;-61
2022/11/08 07:04:19;;;;;;;7.13;2.28;;;13.50;76.30;;;;;;5030484;28;20048;-61
2022/11/08 07:06:45;;;;;;;8.30;2.38;;;13.50;76.30;;;;;;5027011;28;20022;-61
2022/11/08 07:09:11;;;;;;;6.95;2.30;;;13.50;76.20;;;;;;5014683;28;20406;-61
2022/11/08 07:11:36;;;;;;;4.85;1.88;;;13.60;76.20;;;;;;5018541;28;20040;-62
2022/11/08 07:14:02;;;;;;;7.65;2.30;;;13.60;76.10;;;;;;5015602;28;20423;-61
2022/11/08 07:16:28;;;;;;;7.10;2.38;;;13.60;76.10;;;;;;5015226;28;20379;-62
2022/11/08 07:18:54;;;;;;;6.28;2.03;;;13.60;76.00;;;;;;5015000;28;20098;-62
2022/11/08 07:21:20;;;;;;;8.68;2.35;;;13.60;76.00;;;;;;5018166;28;20459;-62
2022/11/08 07:23:47;;;;;;;6.40;2.13;;;13.60;75.90;;;;;;5013687;28;20110;-62
2022/11/08 07:26:13;;;;;;;7.82;2.45;;;13.60;75.80;;;;;;5015996;28;20030;-62
2022/11/08 07:28:39;;;;;;;3.42;1.77;;;13.70;75.70;;;;;;5012651;28;20029;-62
2022/11/08 07:31:05;;;;;;;5.78;2.15;;;13.70;75.70;;;;;;5029665;28;20038;-62
2022/11/08 07:33:31;;;;;;;5.63;2.10;;;13.70;75.60;;;;;;5014290;28;20443;-61
2022/11/08 07:35:57;;;;;;;5.97;2.10;;;13.80;75.60;;;;;;5015255;28;20063;-61
2022/11/08 07:38:24;;;;;;;9.93;2.60;;;13.70;75.50;;;;;;5012372;28;20026;-61
2022/11/08 07:40:51;;;;;;;6.80;2.03;;;13.70;75.40;;;;;;5011774;28;20025;-61
2022/11/08 07:43:16;;;;;;;6.97;2.58;;;13.80;75.40;;;;;;5014064;28;20029;-61
2022/11/08 07:45:42;;;;;;;5.78;2.10;;;13.80;75.30;;;;;;5014711;28;20120;-62
2022/11/08 07:48:10;;;;;;;7.40;1.95;;;13.80;75.30;;;;;;5012542;28;20456;-62
2022/11/08 07:50:36;;;;;;;5.63;1.90;;;13.80;75.20;;;;;;5015197;28;20026;-63
2022/11/08 07:53:02;;;;;;;7.43;2.35;;;13.80;75.20;;;;;;5013900;28;20045;-63
2022/11/08 07:55:27;;;;;;;8.40;2.00;;;13.80;75.10;;;;;;5011163;28;20034;-63
2022/11/08 07:58:00;;;;;;;5.65;2.10;;;13.80;75.00;;;;;;5011676;28;20060;-63
2022/11/08 08:00:27;;;;;;;4.90;2.03;;;13.80;74.90;;;;;;5020870;28;20105;-63
2022/11/08 08:03:00;;;;;;;5.13;2.05;;;13.80;74.80;;;;;;5023281;28;20018;-64
2022/11/08 08:05:28;;;;;;;7.95;2.17;;;13.90;74.70;;;;;;5028143;28;20033;-63
2022/11/08 08:07:58;;;;;;;4.25;1.70;;;13.90;74.60;;;;;;5020223;28;20401;-63
2022/11/08 08:10:25;;;;;;;5.38;1.98;;;13.90;74.50;;;;;;5027527;28;20335;-64
2022/11/08 08:12:50;;;;;;;4.68;1.83;;;13.90;74.50;;;;;;5019525;28;20046;-64
2022/11/08 08:15:16;;;;;;;5.03;1.70;;;13.90;74.40;;;;;;5026624;28;20091;-64
2022/11/08 08:17:41;;;;;;;7.93;2.13;;;14.00;74.40;;;;;;5018398;28;20033;-63
2022/11/08 08:20:08;;;;;;;5.13;1.95;;;14.00;74.30;;;;;;5019779;28;20021;-65
2022/11/08 08:22:33;;;;;;;5.32;1.80;;;14.00;74.20;;;;;;5014313;28;20407;-63
2022/11/08 08:24:59;;;;;;;5.60;2.05;;;14.00;74.00;;;;;;5012758;28;20034;-63
2022/11/08 08:27:24;;;;;;;5.75;1.60;;;14.00;74.00;;;;;;5017195;28;20025;-62
2022/11/08 08:29:50;;;;;;;7.53;2.30;;;14.00;73.90;;;;;;5007247;28;20026;-63
2022/11/08 08:32:16;;;;;;;8.18;2.10;;;14.10;73.90;;;;;;5009631;28;20099;-63
2022/11/08 08:34:41;;;;;;;6.10;2.15;;;14.10;73.70;;;;;;5011697;28;20045;-63
2022/11/08 08:37:07;;;;;;;4.22;1.88;;;14.10;73.50;;;;;;5009050;28;20034;-63
2022/11/08 08:39:32;;;;;;;5.70;1.98;;;14.20;73.40;;;;;;5011969;28;20026;-63
2022/11/08 08:41:58;;;;;;;4.32;1.98;;;14.30;73.20;;;;;;5012844;28;20022;-62
2022/11/08 08:44:24;;;;;;;4.35;1.88;;;14.30;72.90;;;;;;5012789;28;20033;-63
2022/11/08 08:46:49;;;;;;;6.55;2.17;;;14.40;72.70;;;;;;5012905;28;20033;-63
2022/11/08 08:49:15;;;;;;;4.85;1.88;;;14.40;72.40;;;;;;5015694;28;20573;-62
2022/11/08 08:51:41;;;;;;;5.43;1.67;;;14.50;72.30;;;;;;5015742;28;20040;-63
2022/11/08 08:54:06;;;;;;;7.43;2.00;;;14.50;72.10;;;;;;5017239;28;20421;-63
2022/11/08 08:56:32;;;;;;;5.95;1.90;;;14.50;71.90;;;;;;5014901;28;20424;-63
2022/11/08 08:58:57;;;;;;;4.95;1.70;;;14.60;71.70;;;;;;5015283;28;20443;-63
2022/11/08 09:01:23;;;;;;;4.45;1.90;;;14.60;71.70;;;;;;5015410;28;20029;-63
2022/11/08 09:03:49;;;;;;;5.47;1.80;;;14.70;71.50;;;;;;5014986;28;20041;-63
2022/11/08 09:06:14;;;;;;;6.05;1.95;;;14.70;71.30;;;;;;5014420;28;20025;-63
2022/11/08 09:08:40;;;;;;;3.47;1.48;;;14.70;71.10;;;;;;5014716;28;20092;-63
2022/11/08 09:11:05;;;;;;;5.30;1.70;;;14.70;70.80;;;;;;5031898;28;20034;-63
2022/11/08 09:13:31;;;;;;;5.63;1.77;;;14.70;70.60;;;;;;5017478;28;20073;-63
2022/11/08 09:16:00;;;;;;;4.95;1.33;;;14.80;70.40;;;;;;5017555;28;20033;-63
2022/11/08 09:18:26;;;;;;;9.95;2.50;;;14.80;70.30;;;;;;5016325;28;20470;-63
2022/11/08 09:20:55;;;;;;;4.60;1.60;;;14.80;70.20;;;;;;5015576;28;20046;-64
2022/11/08 09:23:21;;;;;;;6.40;1.77;;;14.90;70.00;;;;;;5016927;28;20022;-63
2022/11/08 09:25:46;;;;;;;6.85;2.00;;;14.80;69.90;;;;;;5017380;28;20099;-63
2022/11/08 09:28:12;;;;;;;4.30;1.60;;;14.80;69.90;;;;;;5016908;28;20096;-63
2022/11/08 09:30:38;;;;;;;5.68;1.80;;;14.80;69.70;;;;;;5012777;28;20041;-64
2022/11/08 09:33:04;;;;;;;5.80;2.05;;;14.80;69.60;;;;;;5015275;28;20144;-64
2022/11/08 09:35:30;;;;;;;4.93;1.90;;;14.80;69.50;;;;;;5016826;28;20040;-63
2022/11/08 09:37:56;;;;;;;4.07;1.60;;;14.90;69.50;;;;;;5016915;28;20034;-64
2022/11/08 09:40:57;;;;;;;5.30;1.90;;;14.90;69.30;;;;;;5012504;28;20030;-63
2022/11/08 09:43:29;;;;;;;4.50;1.77;;;14.90;69.10;;;;;;5015075;28;20100;-63
2022/11/08 09:45:56;;;;;;;6.57;1.70;;;14.90;69.10;;;;;;5016502;28;20040;-63
2022/11/08 09:48:34;;;;;;;5.65;1.85;;;15.00;69.00;;;;;;5016717;28;20036;-63
2022/11/08 09:51:08;;;;;;;4.78;1.60;;;15.10;68.70;;;;;;5015570;28;20598;-63
2022/11/08 09:53:55;;;;;;;5.40;1.95;;;15.10;68.50;;;;;;5014610;28;20307;-64
2022/11/08 09:56:22;;;;;;;4.28;1.73;;;15.10;68.30;;;;;;5014276;28;20327;-62
2022/11/08 09:59:25;;;;;;;6.22;1.70;;;15.20;68.40;;;;;;5011503;28;20188;-62
2022/11/08 10:01:50;;;;;;;4.47;1.73;;;15.20;68.30;;;;;;5011049;28;20041;-61
2022/11/08 10:04:22;;;;;;;6.05;2.00;;;15.20;68.30;;;;;;5035850;28;20044;-61
2022/11/08 10:07:18;;;;;;;5.38;1.77;;;15.20;68.20;;;;;;5010680;28;20378;-60
2022/11/08 10:10:22;;;;;;;4.72;1.83;;;15.20;68.20;;;;;;5031685;28;20526;-61
2022/11/08 10:12:56;;;;;;;5.20;1.48;;;15.20;68.30;;;;;;5019356;28;20403;-61
2022/11/08 10:15:31;;;;;;;6.85;2.10;;;15.20;68.30;;;;;;5024008;28;20104;-61
2022/11/08 10:18:01;;;;;;;5.22;2.13;;;15.30;68.30;;;;;;5035686;28;20095;-61
2022/11/08 10:20:39;;;;;;;4.47;1.90;;;15.30;68.20;;;;;;5022844;28;20107;-62
2022/11/08 10:23:24;;;;;;;5.50;1.75;;;15.30;68.10;;;;;;5025779;28;20036;-61
2022/11/08 10:26:08;;;;;;;5.00;1.90;;;15.30;67.90;;;;;;5011402;28;20025;-61
2022/11/08 10:28:40;;;;;;;6.57;1.92;;;15.30;67.90;;;;;;5014811;28;20048;-61
2022/11/08 10:31:08;;;;;;;6.22;1.92;;;15.30;67.80;;;;;;5018426;28;20034;-61
2022/11/08 10:33:49;;;;;;;3.67;1.58;;;15.30;67.70;;;;;;5018208;28;20029;-62
2022/11/08 10:36:46;;;;;;;4.55;1.67;;;15.30;67.60;;;;;;5015056;28;20466;-61
2022/11/08 10:39:17;;;;;;;5.72;1.92;;;15.40;67.50;;;;;;5004503;28;20133;-61
2022/11/08 10:42:04;;;;;;;6.35;1.92;;;15.40;67.50;;;;;;5027334;28;20038;-61
2022/11/08 10:44:29;;;;;;;6.05;1.73;;;15.30;67.30;;;;;;5017733;28;20034;-61
2022/11/08 10:46:55;;;;;;;5.32;1.80;;;15.40;67.40;;;;;;5016368;28;20038;-61
2022/11/08 10:49:26;;;;;;;5.25;1.73;;;15.40;67.30;;;;;;5027660;28;20048;-61
2022/11/08 10:51:55;;;;;;;5.78;1.90;;;15.50;67.30;;;;;;5027184;28;20476;-61
2022/11/08 10:54:38;;;;;;;5.82;1.95;;;15.50;67.10;;;;;;5035135;28;20035;-61
2022/11/08 10:57:04;;;;;;;4.18;1.98;;;15.50;66.90;;;;;;5035277;28;20296;-61
2022/11/08 10:59:31;;;;;;;5.43;1.70;;;15.50;67.00;;;;;;5034715;28;20036;-61
2022/11/08 11:01:57;;;;;;;3.72;1.60;;;15.50;67.00;;;;;;5035164;28;20419;-61
2022/11/08 11:04:30;;;;;;;4.50;1.65;;;15.50;67.00;;;;;;5031348;28;20057;-61
2022/11/08 11:07:32;;;;;;;5.78;1.95;;;15.50;67.00;;;;;;5015097;28;20040;-61
2022/11/08 11:10:26;;;;;;;4.97;1.73;;;15.40;67.00;;;;;;5022269;28;20044;-61
2022/11/08 11:13:04;;;;;;;4.75;1.95;;;15.40;67.20;;;;;;5034894;28;20109;-61
2022/11/08 11:15:31;;;;;;;7.95;2.00;;;15.40;67.20;;;;;;5027705;28;20053;-61
2022/11/08 11:17:57;;;;;;;7.10;1.98;;;15.40;67.30;;;;;;5030631;28;20029;-61
2022/11/08 11:20:23;;;;;;;3.80;1.67;;;15.40;67.30;;;;;;5034444;28;20033;-62
2022/11/08 11:22:50;;;;;;;5.43;1.98;;;15.40;67.30;;;;;;5031630;28;20474;-61
2022/11/08 11:25:19;;;;;;;5.90;2.00;;;15.40;67.30;;;;;;5013863;28;20041;-61
2022/11/08 11:27:53;;;;;;;5.85;1.80;;;15.40;67.30;;;;;;5014405;28;20473;-61
2022/11/08 11:30:22;;;;;;;5.65;1.90;;;15.40;67.40;;;;;;5028027;28;20042;-61
2022/11/08 11:33:17;;;;;;;5.22;1.90;;;15.50;67.40;;;;;;5011466;28;20415;-62
2022/11/08 11:35:49;;;;;;;5.97;1.90;;;15.50;67.30;;;;;;5012219;28;20033;-61
2022/11/08 11:38:22;;;;;;;6.07;2.45;;;15.50;67.20;;;;;;5012461;28;20026;-62
2022/11/08 11:40:50;;;;;;;5.78;1.83;;;15.60;67.10;;;;;;5010230;28;20034;-61
2022/11/08 11:43:33;;;;;;;6.55;1.90;;;15.70;66.90;;;;;;5009558;28;20442;-60
2022/11/08 11:46:27;;;;;;;5.53;1.90;;;15.70;66.80;;;;;;5010126;28;20030;-60
2022/11/08 11:49:00;;;;;;;5.60;1.77;;;15.70;66.70;;;;;;5015452;28;20407;-60
2022/11/08 11:51:28;;;;;;;6.57;2.00;;;15.70;66.70;;;;;;5012693;28;20038;-60
2022/11/08 11:54:01;;;;;;;7.15;1.83;;;15.70;66.70;;;;;;5010463;28;20359;-61
2022/11/08 11:56:48;;;;;;;4.70;1.63;;;15.70;66.80;;;;;;5014736;28;20126;-61
2022/11/08 11:59:26;;;;;;;4.70;1.75;;;15.70;66.80;;;;;;5012869;28;20021;-61
2022/11/08 12:02:37;;;;;;;4.43;1.60;;;15.70;66.80;;;;;;5024555;28;20112;-61
2022/11/08 12:05:34;;;;;;;5.63;1.90;;;15.80;66.80;;;;;;5009024;28;20037;-61
2022/11/08 12:08:27;;;;;;;5.10;1.52;;;15.80;66.70;;;;;;5017605;28;20069;-61
2022/11/08 12:10:52;;;;;;;6.07;1.88;;;15.80;66.60;;;;;;5005308;28;20029;-61
2022/11/08 12:13:37;;;;;;;5.55;1.60;;;15.80;66.40;;;;;;4994269;28;20057;-61
2022/11/08 12:16:17;;;;;;;5.28;1.85;;;15.90;66.20;;;;;;5014014;28;20089;-61
2022/11/08 12:18:54;;;;;;;5.15;1.77;;;15.90;66.10;;;;;;5013739;28;20042;-61
2022/11/08 12:21:49;;;;;;;5.18;1.70;;;16.00;66.20;;;;;;5013276;28;20348;-61
2022/11/08 12:24:23;;;;;;;5.45;2.35;;;16.10;65.90;;;;;;5017332;28;20477;-61
2022/11/08 12:27:34;;;;;;;5.20;2.00;;;16.10;65.90;;;;;;5017444;28;20041;-61
2022/11/08 12:30:23;;;;;;;4.95;1.98;;;16.10;65.80;;;;;;5010343;28;20042;-61
2022/11/08 12:33:14;;;;;;;6.05;2.10;;;16.20;65.80;;;;;;5016730;28;20030;-60
2022/11/08 12:35:50;;;;;;;6.15;1.85;;;16.20;65.70;;;;;;5017392;28;20416;-61
2022/11/08 12:38:53;;;;;;;6.25;2.03;;;16.20;65.70;;;;;;5018055;28;20034;-61
2022/11/08 12:41:23;;;;;;;4.93;2.00;;;16.20;65.60;;;;;;5021048;28;20450;-61
2022/11/08 12:44:04;;;;;;;5.75;1.85;;;16.30;65.70;;;;;;5020297;28;20036;-61
2022/11/08 12:46:36;;;;;;;4.25;1.75;;;16.30;65.70;;;;;;5017236;28;20018;-61
2022/11/08 12:49:28;;;;;;;4.68;1.50;;;16.20;65.60;;;;;;5018379;28;20038;-61
2022/11/08 12:52:03;;;;;;;5.07;1.77;;;16.20;65.70;;;;;;5017593;28;20033;-61
2022/11/08 12:54:36;;;;;;;6.95;1.67;;;16.20;65.90;;;;;;5014879;28;20042;-61
2022/11/08 12:57:09;;;;;;;4.88;1.65;;;16.10;65.90;;;;;;5032569;28;20087;-61
2022/11/08 12:59:41;;;;;;;5.35;1.90;;;16.10;66.00;;;;;;5017967;28;20049;-61
2022/11/08 13:02:23;;;;;;;5.88;2.22;;;16.00;66.00;;;;;;5019017;28;20022;-61
2022/11/08 13:05:00;;;;;;;5.00;1.55;;;16.10;66.10;;;;;;5016577;28;20057;-61
2022/11/08 13:07:34;;;;;;;4.55;1.60;;;16.00;66.20;;;;;;5011456;28;20099;-61
2022/11/08 13:10:15;;;;;;;7.80;2.15;;;16.00;66.10;;;;;;5017598;28;20074;-61
2022/11/08 13:13:06;;;;;;;5.95;2.00;;;16.00;66.20;;;;;;5018268;28;20037;-61
2022/11/08 13:15:32;;;;;;;6.13;2.50;;;16.00;66.20;;;;;;5017372;28;20108;-61
2022/11/08 13:18:07;;;;;;;7.28;2.90;;;16.00;66.90;;;;;;5017211;28;20117;-61
2022/11/08 13:20:40;;;;;;;6.40;2.67;;;16.00;66.20;;;;;;5016567;28;20041;-61